Linwood, MI

3:33 PM EDT on July 31, 2015 (GMT -0400)
APRSWXNET | | Change Station
CLOSE
Current Station
Personal Weather Station
Location: Linwood, MI
Elevation: 620 ft
Nearby Weather Stations

Elev 620 ft 43.74 °N, 83.96 °W | Updated 28 minutes ago

Mostly Cloudy
Mostly Cloudy
81 °F
Feels Like 81 °F
N
6
Wind Variable Wind from West
Gusts 0.0 mph

Today
High -- | Low -- °F
--% Chance of Precip.
Yesterday
High -- | Low -- °F
Precip. -- in
6:23 AM 9:00 PM
Full, 100% visible
Pressure 29.81 in
Visibility 10.0 miles
Clouds Scattered Clouds 6500 ft
Overcast 11000 ft
Heat Index 81 °F
Dew Point 59 °F
Humidity 48%
Rainfall in
Snow Depth Not available.
UV 3 out of 12
Pollen 7.30 out of 12
Air Quality Not available.
Flu Activity Not available.
METAR KIKW 311914Z AUTO 26008G15KT 10SM SCT065 OVC110 28/12 A2981 RMK AO2 T02820118

More Conditions Fewer Conditions

Pressure 29.81 in
Visibility 10.0 miles
Clouds Scattered Clouds 6500 ft
Overcast 11000 ft
Heat Index 81 °F
Dew Point 59 °F
Humidity 48%
Rainfall in
Snow Depth Not available.
UV 3 out of 12
Pollen 7.30 out of 12
Air Quality Not available.
Flu Activity Not available.
METAR KIKW 311914Z AUTO 26008G15KT 10SM SCT065 OVC110 28/12 A2981 RMK AO2 T02820118

More Conditions Fewer Conditions

10-Day Weather Forecast

×

Almanac

Astronomy

Jul. 31, 2015 Rise Set
Actual Time
Civil Twilight
Nautical Twilight
Astronomical Twilight
Moon
Length of Visible Light
Length of Day
Tomorrow will be .
, % of the Moon is Illuminated

Today's Extremes

State Highs State Lows

Community

WunderPhotos

Upload Photos

1,842,711 photos uploaded!

WunderBlogs® & News

Nearby

Air Quality

  Air Quality AQ Index Pollutant
Not available.

Snow Depth

Station Depth Elevation

Earthquake Activity

City Distance Mag. Time & Date
Minimum magnitude displayed is 2.5.

Coastal Water Temperatures

Place Temperature

Stations

Nearby Weather Stations

Station Location Temp. Windchill Dew Point Humidity Wind Precip. Elev Updated Type